Time;durP1;ratioP1;P1;durP2;ratioP2;P2;SDS_P1;SDS_P2;PMS_P1;PMS_P2;Temp;Humidity;BMP_temperature;BMP_pressure;BME280_temperature;BME280_humidity;BME280_pressure;Samples;Min_cycle;Max_cycle;Signal;HPM_P1;HPM_P2
2021/04/21 00:00:11;;;;;;;7.32;5.60;;;7.70;99.90;;;7.15;87.35;100733.88;5026392;28;20116;-45
2021/04/21 00:02:38;;;;;;;9.00;5.72;;;7.70;99.90;;;7.14;87.22;100734.00;5045517;28;20403;-46
2021/04/21 00:05:09;;;;;;;8.18;5.97;;;7.70;99.90;;;7.08;87.74;100737.09;5027976;28;20025;-46
2021/04/21 00:07:36;;;;;;;7.57;5.32;;;7.70;99.90;;;7.02;88.61;100735.78;5029081;28;20127;-46
2021/04/21 00:10:08;;;;;;;8.68;6.20;;;7.60;99.90;;;6.95;88.77;100739.75;5046592;28;20074;-44
2021/04/21 00:12:34;;;;;;;6.75;5.43;;;7.50;99.90;;;6.86;89.10;100746.44;5046160;28;20024;-43
2021/04/21 00:15:01;;;;;;;6.50;5.75;;;7.50;99.90;;;6.81;89.61;100738.19;5046365;28;20567;-44
2021/04/21 00:17:28;;;;;;;4.35;2.03;;;7.40;99.90;;;6.86;89.30;100741.28;5045290;28;20052;-41
2021/04/21 00:19:57;;;;;;;4.63;2.25;;;7.40;99.90;;;7.02;87.74;100729.78;5046007;28;20075;-45
2021/04/21 00:22:27;;;;;;;2.85;2.28;;;7.50;99.90;;;7.10;86.97;100724.81;5028033;28;20036;-41
2021/04/21 00:24:54;;;;;;;4.30;1.63;;;7.60;99.90;;;7.12;86.44;100733.28;5028435;28;20226;-48
2021/04/21 00:27:26;;;;;;;2.35;1.55;;;7.60;99.90;;;7.11;85.94;100726.47;5026026;28;20079;-45
2021/04/21 00:30:01;;;;;;;2.00;1.27;;;7.60;99.90;;;7.17;85.69;100726.00;5027038;28;20037;-46
2021/04/21 00:32:28;;;;;;;2.55;1.50;;;7.70;99.90;;;7.11;85.50;100718.69;5029182;28;20037;-42
2021/04/21 00:34:58;;;;;;;1.70;1.33;;;7.70;99.90;;;7.11;85.57;100721.28;5046221;28;20033;-46
2021/04/21 00:37:30;;;;;;;3.00;1.20;;;7.60;99.90;;;7.10;85.23;100717.03;5049302;28;20128;-48
2021/04/21 00:39:58;;;;;;;1.70;0.82;;;7.60;99.90;;;7.13;85.20;100717.63;5030771;28;20048;-41
2021/04/21 00:42:49;;;;;;;1.73;0.90;;;7.70;99.90;;;7.12;84.74;100720.34;5030709;28;20052;-43
2021/04/21 00:45:18;;;;;;;2.28;0.73;;;7.70;99.90;;;7.01;85.14;100709.97;5050168;28;20128;-42
2021/04/21 00:48:26;;;;;;;7.75;2.85;;;7.60;99.90;;;6.83;86.60;100715.59;5050205;28;20033;-44
2021/04/21 00:51:01;;;;;;;7.18;4.03;;;7.50;99.90;;;6.66;86.65;100723.78;5046467;28;20040;-43
2021/04/21 00:53:57;;;;;;;6.47;4.95;;;7.30;99.90;;;6.57;87.88;100721.91;5032935;28;20033;-41
2021/04/21 00:57:03;;;;;;;5.95;4.93;;;7.20;99.90;;;6.53;88.43;100717.88;5028437;28;20138;-47
2021/04/21 00:59:47;;;;;;;5.50;4.40;;;7.10;99.90;;;6.48;87.92;100720.78;5033680;28;20142;-44
2021/04/21 01:02:19;;;;;;;6.25;4.53;;;7.10;99.90;;;6.44;88.32;100713.38;5049432;28;20032;-45
2021/04/21 01:04:46;;;;;;;9.10;5.05;;;7.00;99.90;;;6.41;88.36;100713.59;5032346;28;20049;-44
2021/04/21 01:07:15;;;;;;;7.00;5.00;;;7.00;99.90;;;6.39;88.47;100712.88;5049677;28;20068;-41
2021/04/21 01:09:43;;;;;;;5.90;4.63;;;6.90;99.90;;;6.36;88.47;100723.44;5032241;28;20047;-40
2021/04/21 01:12:14;;;;;;;6.05;4.70;;;6.90;99.90;;;6.31;88.89;100723.78;5049610;28;20547;-45
2021/04/21 01:14:44;;;;;;;6.18;4.28;;;6.90;99.90;;;6.27;88.92;100725.75;5031079;28;20044;-42
2021/04/21 01:17:14;;;;;;;5.30;4.15;;;6.80;99.90;;;6.28;88.88;100719.66;5050437;28;20532;-44
2021/04/21 01:19:58;;;;;;;6.13;2.05;;;6.80;99.90;;;6.31;88.42;100724.59;5029341;28;20041;-46
2021/04/21 01:22:42;;;;;;;3.78;2.47;;;6.80;99.90;;;6.33;88.34;100730.50;5048821;28;20399;-41
2021/04/21 01:25:39;;;;;;;4.35;2.53;;;6.90;99.90;;;6.30;88.71;100725.53;5048437;28;20029;-49
2021/04/21 01:28:22;;;;;;;4.07;2.38;;;6.90;99.90;;;6.25;89.02;100725.03;5047907;28;20449;-42
2021/04/21 01:30:49;;;;;;;2.67;1.52;;;6.80;99.90;;;6.26;88.22;100733.63;5050006;28;20064;-42
2021/04/21 01:33:25;;;;;;;4.13;2.60;;;6.80;99.90;;;6.25;87.99;100735.38;5030718;28;20045;-44
2021/04/21 01:36:02;;;;;;;;;;;6.80;99.90;;;6.25;88.14;100740.56;5030632;28;20041;-43
2021/04/21 01:38:30;;;;;;;;;;;6.80;99.90;;;6.23;88.59;100737.25;5030887;28;19920;-43
2021/04/21 01:41:01;;;;;;;5.05;2.00;;;6.80;99.90;;;6.23;87.95;100734.69;5048062;28;20029;-47
2021/04/21 01:44:13;;;;;;;4.25;2.63;;;6.80;99.90;;;6.24;88.55;100733.75;5048651;28;20132;-44
2021/04/21 01:46:43;;;;;;;3.00;2.28;;;6.70;99.90;;;6.21;88.43;100733.97;5027561;28;20526;-48
2021/04/21 01:49:21;;;;;;;6.25;2.17;;;6.80;99.90;;;6.21;88.93;100731.38;5031017;28;20037;-44
2021/04/21 01:51:56;;;;;;;5.57;2.63;;;6.70;99.90;;;6.18;88.91;100731.59;5048491;28;20041;-50
2021/04/21 01:54:25;;;;;;;2.67;1.85;;;6.70;99.90;;;6.19;88.18;100725.47;5028934;28;20052;-43
2021/04/21 01:57:04;;;;;;;1.92;1.23;;;6.70;99.90;;;6.20;88.00;100729.72;5047132;28;20493;-47
2021/04/21 01:59:47;;;;;;;4.70;1.33;;;6.70;99.90;;;6.20;88.27;100729.72;5030133;28;20372;-45
2021/04/21 02:02:34;;;;;;;5.18;1.30;;;6.70;99.90;;;6.21;87.82;100730.53;5030754;28;20029;-43
2021/04/21 02:05:39;;;;;;;5.10;1.63;;;6.70;99.90;;;6.18;87.80;100718.66;5028358;28;20481;-42
2021/04/21 02:08:29;;;;;;;2.92;1.10;;;6.70;99.90;;;6.16;86.89;100722.28;5047540;28;20175;-45
2021/04/21 02:11:21;;;;;;;1.75;1.20;;;6.70;99.90;;;6.15;86.75;100729.22;5027389;28;20064;-45
2021/04/21 02:14:51;;;;;;;2.35;0.93;;;6.70;99.90;;;6.18;86.87;100729.00;5028138;28;20116;-41
2021/04/21 02:17:38;;;;;;;2.08;1.13;;;6.70;99.90;;;6.13;86.51;100732.88;4964847;28;20050;-45
2021/04/21 02:20:40;;;;;;;2.95;1.75;;;6.70;99.90;;;6.16;87.71;100730.88;4947406;28;20522;-41
2021/04/21 02:23:45;;;;;;;2.35;1.48;;;6.70;99.90;;;6.12;87.80;100729.47;4960494;28;20058;-41
2021/04/21 02:26:57;;;;;;;3.97;1.58;;;6.70;99.90;;;6.04;88.95;100725.78;4930421;29;20407;-45
2021/04/21 02:29:46;;;;;;;3.72;2.17;;;6.60;99.90;;;6.01;89.36;100726.81;4949019;28;20063;-46
2021/04/21 02:32:53;;;;;;;2.72;1.90;;;6.50;99.90;;;5.98;89.29;100725.25;4946836;29;20070;-44
2021/04/21 02:35:33;;;;;;;3.25;1.73;;;6.50;99.90;;;5.95;88.63;100722.06;4944375;29;20424;-41
2021/04/21 02:38:19;;;;;;;2.53;1.73;;;6.50;99.90;;;5.99;88.73;100714.00;4947426;28;20182;-44
2021/04/21 02:40:53;;;;;;;2.53;1.30;;;6.50;99.90;;;6.04;87.40;100718.00;4944401;28;20114;-42
2021/04/21 02:43:44;;;;;;;2.40;0.90;;;6.50;99.90;;;6.04;87.33;100718.00;4942898;29;20059;-41
2021/04/21 02:46:18;;;;;;;2.20;1.23;;;6.50;99.90;;;5.98;86.71;100722.69;4940995;29;20130;-41
2021/04/21 02:49:08;;;;;;;1.90;0.80;;;6.50;99.90;;;6.01;86.49;100716.47;5010463;28;20048;-44
2021/04/21 02:52:04;;;;;;;3.47;1.73;;;6.50;99.90;;;5.89;87.04;100720.75;5026659;28;20132;-42
2021/04/21 02:55:03;;;;;;;3.38;2.10;;;6.50;99.90;;;5.63;87.79;100711.38;5027657;28;20093;-41
2021/04/21 02:57:36;;;;;;;4.55;2.75;;;6.30;99.90;;;5.49;88.49;100716.69;5038507;28;20129;-44
2021/04/21 03:00:28;;;;;;;4.82;3.20;;;6.10;99.90;;;5.46;89.10;100714.31;5041606;28;20060;-42
2021/04/21 03:03:17;;;;;;;3.55;3.25;;;6.00;99.90;;;5.44;88.52;100711.81;5025928;28;20120;-43
2021/04/21 03:05:50;;;;;;;3.45;2.83;;;6.00;99.90;;;5.45;88.54;100707.47;5008629;28;20496;-42
2021/04/21 03:08:48;;;;;;;8.05;2.33;;;6.00;99.90;;;5.49;88.25;100699.41;5041936;28;20120;-43
2021/04/21 03:11:29;;;;;;;3.33;1.75;;;6.00;99.90;;;5.57;88.07;100694.53;5040965;28;20037;-42
2021/04/21 03:14:02;;;;;;;5.55;2.13;;;6.10;99.90;;;5.62;87.52;100695.06;5009272;28;20408;-43
2021/04/21 03:16:34;;;;;;;3.22;1.70;;;6.10;99.90;;;5.66;86.98;100686.16;5027535;28;20099;-42
2021/04/21 03:19:07;;;;;;;3.78;1.88;;;6.20;99.90;;;5.71;86.84;100700.47;5027412;28;20033;-41
2021/04/21 03:22:14;;;;;;;4.97;2.45;;;6.20;99.90;;;5.68;87.46;100697.19;5042335;28;20504;-47
2021/04/21 03:24:57;;;;;;;;;;;6.20;99.90;;;5.65;87.12;100689.66;5010448;28;20052;-44
2021/04/21 03:27:30;;;;;;;2.75;1.90;;;6.20;99.90;;;5.63;86.73;100690.69;5008077;28;19951;-41
2021/04/21 03:30:04;;;;;;;2.13;1.55;;;6.20;99.90;;;5.64;86.66;100690.59;5009828;28;20052;-42
2021/04/21 03:32:36;;;;;;;2.33;1.38;;;6.20;99.90;;;5.67;86.37;100695.53;5009895;28;20052;-42
2021/04/21 03:35:06;;;;;;;4.22;1.15;;;6.20;99.90;;;5.67;86.14;100690.34;4997518;28;20478;-40
2021/04/21 03:38:10;;;;;;;2.25;0.88;;;6.20;99.90;;;5.72;86.26;100694.38;5009009;28;20116;-43
2021/04/21 03:40:38;;;;;;;2.38;1.27;;;6.20;99.90;;;5.67;85.94;100682.59;5036912;28;20386;-43
2021/04/21 03:43:05;;;;;;;2.22;1.40;;;6.20;99.90;;;5.63;85.90;100683.78;5021479;28;20507;-45
2021/04/21 03:45:34;;;;;;;2.55;1.73;;;6.20;99.90;;;5.54;86.64;100687.00;5026880;28;20481;-45
2021/04/21 03:48:01;;;;;;;4.05;2.63;;;6.10;99.90;;;5.47;86.61;100679.78;5009061;28;20199;-42
2021/04/21 03:50:30;;;;;;;5.78;3.13;;;6.00;99.90;;;5.29;87.16;100687.84;5026130;28;20036;-43
2021/04/21 03:53:08;;;;;;;3.72;2.80;;;6.00;99.90;;;5.19;88.08;100686.03;5027181;28;20091;-43
2021/04/21 03:55:36;;;;;;;6.47;3.63;;;5.80;99.90;;;5.12;88.40;100685.63;5025774;28;20045;-41
2021/04/21 03:58:17;;;;;;;3.08;1.73;;;5.80;99.90;;;5.11;88.73;100683.13;5027172;28;20384;-42
2021/04/21 04:00:49;;;;;;;2.70;1.38;;;5.70;99.90;;;5.29;87.74;100684.44;5039541;28;20083;-45
2021/04/21 04:03:23;;;;;;;3.88;1.88;;;5.80;99.90;;;5.36;87.46;100688.25;5041039;28;20034;-41
2021/04/21 04:06:01;;;;;;;1.83;1.20;;;5.90;99.90;;;5.41;87.75;100686.19;5026055;28;20047;-40
2021/04/21 04:08:41;;;;;;;5.53;1.52;;;5.90;99.90;;;5.51;87.16;100694.97;5026178;28;20049;-43
2021/04/21 04:11:13;;;;;;;3.40;2.00;;;6.00;99.90;;;5.53;86.97;100685.34;5012164;28;20107;-42
2021/04/21 04:13:45;;;;;;;7.25;1.40;;;6.10;99.90;;;5.61;86.96;100687.41;5026239;28;20033;-41
2021/04/21 04:16:13;;;;;;;3.05;1.52;;;6.10;99.90;;;5.67;86.18;100697.31;5027111;28;20044;-43
2021/04/21 04:18:43;;;;;;;2.72;1.30;;;6.20;99.90;;;5.67;86.39;100694.72;5025801;28;20048;-41
2021/04/21 04:21:14;;;;;;;2.35;1.63;;;6.20;99.90;;;5.67;86.66;100692.94;5025030;28;20079;-44
2021/04/21 04:23:42;;;;;;;4.13;1.95;;;6.20;99.90;;;5.67;86.39;100692.16;5026273;28;20382;-45
2021/04/21 04:26:09;;;;;;;2.58;1.33;;;6.20;99.90;;;5.66;86.38;100690.50;5026046;28;20037;-41
2021/04/21 04:28:36;;;;;;;3.15;1.38;;;6.20;99.90;;;5.71;85.96;100697.91;5026519;28;20080;-47
2021/04/21 04:31:05;;;;;;;2.58;1.50;;;6.20;99.90;;;5.75;85.77;100700.16;5026224;28;20370;-46
2021/04/21 04:33:31;;;;;;;3.83;1.80;;;6.30;99.90;;;5.78;85.49;100694.78;5026871;28;20524;-42
2021/04/21 04:35:58;;;;;;;2.58;1.45;;;6.30;99.90;;;5.87;85.34;100698.47;5007931;28;20037;-45
2021/04/21 04:38:25;;;;;;;2.42;1.63;;;6.40;99.90;;;5.91;85.36;100697.34;5026083;28;20087;-44
2021/04/21 04:40:54;;;;;;;4.00;1.70;;;6.50;99.90;;;5.97;84.88;100695.16;5026956;28;20393;-47
2021/04/21 04:43:23;;;;;;;2.67;1.65;;;6.50;99.90;;;6.19;84.27;100699.59;5037709;28;20107;-43
2021/04/21 04:46:00;;;;;;;5.57;2.30;;;6.70;99.90;;;6.49;83.56;100706.91;5026315;28;20041;-44
2021/04/21 04:48:55;;;;;;;3.63;1.95;;;7.00;99.90;;;6.46;83.53;100711.50;5007658;28;20045;-45
2021/04/21 04:51:22;;;;;;;4.28;1.83;;;7.20;99.90;;;6.65;82.64;100714.34;5021200;28;20069;-43
2021/04/21 04:53:49;;;;;;;2.67;1.73;;;7.30;99.90;;;6.79;81.88;100716.75;5026535;28;20058;-47
2021/04/21 04:56:18;;;;;;;3.75;1.63;;;7.60;99.90;;;6.90;82.10;100719.38;5026410;28;20358;-45
2021/04/21 04:58:46;;;;;;;4.30;1.90;;;7.60;99.90;;;7.03;81.49;100716.69;5025461;28;20037;-46
2021/04/21 05:01:15;;;;;;;5.10;2.35;;;7.90;99.90;;;7.35;81.01;100718.59;5025201;28;20120;-41
2021/04/21 05:03:56;;;;;;;4.40;2.40;;;8.20;99.90;;;7.39;79.50;100718.25;5025080;28;20068;-46
2021/04/21 05:06:34;;;;;;;6.38;1.92;;;8.40;99.90;;;7.26;79.85;100717.53;5022557;28;20134;-44
2021/04/21 05:09:04;;;;;;;3.92;2.60;;;8.10;99.90;;;7.36;80.54;100734.03;5008224;28;20038;-44
2021/04/21 05:11:36;;;;;;;5.10;2.45;;;8.20;99.90;;;8.19;78.67;100734.38;5026789;28;20498;-44
2021/04/21 05:14:10;;;;;;;4.35;2.85;;;9.30;99.90;;;8.97;75.49;100734.06;5008688;28;20124;-46
2021/04/21 05:16:55;;;;;;;3.30;2.22;;;10.50;99.90;;;9.21;72.78;100744.19;5041158;28;20068;-44
2021/04/21 05:19:51;;;;;;;4.05;2.38;;;11.10;99.90;;;9.06;73.45;100744.63;5023647;28;20445;-45
2021/04/21 05:23:02;;;;;;;5.72;2.30;;;10.90;99.90;;;9.69;72.91;100742.72;5027735;28;20073;-49
2021/04/21 05:26:17;;;;;;;5.15;1.92;;;11.30;99.90;;;9.71;70.90;100741.66;5024918;28;20405;-43
2021/04/21 05:29:08;;;;;;;4.57;2.75;;;11.80;99.90;;;9.96;70.31;100753.34;5025111;28;20234;-44
2021/04/21 05:32:04;;;;;;;5.50;2.53;;;11.90;99.90;;;9.65;70.99;100743.00;5050192;28;20036;-47
2021/04/21 05:35:26;;;;;;;4.68;3.08;;;11.80;99.90;;;9.90;69.50;100752.13;5027903;28;20056;-45
2021/04/21 05:38:28;;;;;;;4.50;2.83;;;11.90;99.90;;;10.38;68.40;100750.59;5023961;28;20049;-47
2021/04/21 05:41:03;;;;;;;8.65;2.83;;;12.30;99.50;;;10.84;67.21;100758.53;5027752;28;20050;-45
2021/04/21 05:44:18;;;;;;;5.32;2.65;;;12.80;98.30;;;10.93;65.79;100757.66;5041863;28;20139;-44
2021/04/21 05:47:21;;;;;;;6.93;2.65;;;12.80;97.10;;;11.08;65.45;100762.44;5010448;28;20035;-49
2021/04/21 05:50:41;;;;;;;5.88;3.00;;;13.10;96.70;;;11.00;66.70;100762.31;5028691;28;20551;-51
2021/04/21 05:53:48;;;;;;;5.07;2.40;;;13.30;95.30;;;10.19;67.95;100759.16;4971025;28;20057;-50
2021/04/21 05:56:51;;;;;;;5.05;3.03;;;12.30;96.80;;;9.34;71.49;100763.94;4953812;28;20070;-50
2021/04/21 05:59:41;;;;;;;22.13;3.60;;;10.90;99.90;;;8.92;73.02;100771.78;4962748;28;20053;-49
2021/04/21 06:02:08;;;;;;;5.50;3.58;;;10.20;99.90;;;8.76;74.39;100769.59;4964923;28;20105;-43
2021/04/21 06:04:34;;;;;;;6.78;3.38;;;9.80;99.90;;;8.65;74.62;100773.06;4968332;28;20469;-45
2021/04/21 06:07:10;;;;;;;16.67;3.55;;;9.60;99.90;;;8.31;77.21;100780.13;4969520;28;20163;-48
2021/04/21 06:09:37;;;;;;;26.38;3.85;;;9.30;99.90;;;8.23;76.80;100779.09;4963903;28;20117;-48
2021/04/21 06:12:15;;;;;;;5.53;4.40;;;9.10;99.90;;;8.16;77.82;100776.16;4964449;28;20035;-50
2021/04/21 06:14:43;;;;;;;6.82;4.38;;;9.00;99.90;;;8.20;76.62;100782.75;4967746;28;20113;-51
2021/04/21 06:17:11;;;;;;;9.73;3.80;;;8.90;99.90;;;8.14;76.92;100788.44;4966242;28;20042;-49
2021/04/21 06:19:37;;;;;;;6.38;3.40;;;8.80;99.90;;;8.13;77.00;100784.19;4951164;28;20039;-43
2021/04/21 06:22:03;;;;;;;6.38;3.88;;;8.80;99.90;;;8.21;76.88;100774.03;4950155;28;20031;-46
2021/04/21 06:24:30;;;;;;;5.72;3.78;;;8.90;99.90;;;8.23;77.49;100782.50;4968156;28;20077;-47
2021/04/21 06:27:10;;;;;;;5.72;3.40;;;8.90;99.90;;;8.25;77.79;100775.44;4990232;28;20044;-48
2021/04/21 06:29:38;;;;;;;5.32;3.70;;;9.00;99.90;;;8.48;76.34;100780.59;5021862;28;20034;-45
2021/04/21 06:32:12;;;;;;;5.72;3.40;;;9.10;99.90;;;8.48;76.57;100785.78;5029355;28;20390;-47
2021/04/21 06:34:39;;;;;;;5.00;2.95;;;9.20;99.90;;;8.51;75.85;100790.72;5028598;28;20075;-48
2021/04/21 06:37:05;;;;;;;6.05;3.47;;;9.10;99.90;;;8.57;76.23;100782.44;5029678;28;20026;-47
2021/04/21 06:39:32;;;;;;;5.00;3.05;;;9.20;99.90;;;8.88;75.37;100792.00;5028721;28;20240;-49
2021/04/21 06:42:04;;;;;;;4.03;2.70;;;9.70;99.90;;;9.93;73.18;100790.03;5031590;28;20041;-47
2021/04/21 06:44:46;;;;;;;5.18;2.88;;;10.90;99.90;;;10.05;71.03;100796.81;5029095;28;20049;-47
2021/04/21 06:47:19;;;;;;;4.38;3.80;;;11.50;99.90;;;10.02;71.77;100783.22;5029390;28;20464;-48
2021/04/21 06:49:56;;;;;;;5.15;2.67;;;11.10;99.90;;;10.43;70.99;100790.03;5024505;28;20098;-45
2021/04/21 06:52:22;;;;;;;4.93;2.75;;;11.40;99.90;;;10.76;69.34;100794.88;5029446;28;20557;-47
2021/04/21 06:55:10;;;;;;;4.40;2.90;;;12.20;99.90;;;11.08;68.20;100801.56;5028805;28;20112;-46
2021/04/21 06:57:37;;;;;;;4.22;3.03;;;12.50;99.90;;;11.44;67.36;100792.94;5029081;28;20564;-46
2021/04/21 07:00:11;;;;;;;4.90;3.33;;;12.90;99.90;;;11.64;66.53;100797.16;5026803;28;20111;-47
2021/04/21 07:02:45;;;;;;;5.78;3.38;;;12.80;99.90;;;11.42;67.45;100802.72;5024361;28;20049;-47
2021/04/21 07:05:40;;;;;;;4.07;3.20;;;12.70;99.90;;;11.08;67.62;100806.78;5030924;28;20048;-42
2021/04/21 07:08:15;;;;;;;5.25;3.13;;;12.20;99.90;;;11.08;68.79;100807.59;5028302;28;20064;-46
2021/04/21 07:10:56;;;;;;;3.85;2.83;;;12.00;99.90;;;10.80;69.09;100813.66;5028050;28;20440;-45
2021/04/21 07:13:29;;;;;;;3.70;2.95;;;11.80;99.90;;;10.53;69.98;100811.72;5028124;28;20033;-45
2021/04/21 07:16:08;;;;;;;4.82;3.28;;;11.50;99.90;;;10.35;70.97;100811.59;5007784;28;20339;-48
2021/04/21 07:18:39;;;;;;;7.93;3.60;;;11.20;99.90;;;10.28;71.70;100808.69;5010215;28;20592;-48
2021/04/21 07:21:07;;;;;;;14.00;4.97;;;11.00;99.90;;;10.03;72.96;100818.72;5028199;28;20037;-42
2021/04/21 07:23:37;;;;;;;7.93;4.57;;;10.80;99.90;;;10.07;73.28;100820.09;5027669;28;20533;-44
2021/04/21 07:26:04;;;;;;;7.10;5.53;;;10.80;99.90;;;10.17;72.91;100820.97;5010708;28;20038;-45
2021/04/21 07:28:31;;;;;;;6.32;4.05;;;10.80;99.90;;;10.07;73.22;100813.13;5009924;28;20022;-48
2021/04/21 07:31:09;;;;;;;5.30;3.75;;;10.80;99.90;;;10.15;72.86;100818.47;5027380;28;20040;-44
2021/04/21 07:33:45;;;;;;;4.32;3.08;;;10.80;99.90;;;10.23;72.73;100817.84;5011375;28;20044;-43
2021/04/21 07:36:17;;;;;;;4.75;3.88;;;10.80;99.90;;;10.32;72.46;100818.84;5027698;28;20542;-45
2021/04/21 07:38:50;;;;;;;6.68;3.00;;;10.90;99.90;;;10.47;71.79;100828.72;5027468;28;20057;-47
2021/04/21 07:41:33;;;;;;;4.90;2.72;;;11.00;99.90;;;10.60;70.94;100829.28;5027400;28;20109;-46
2021/04/21 07:44:00;;;;;;;5.85;2.80;;;11.10;99.90;;;10.71;71.01;100830.13;5027159;28;20065;-45
2021/04/21 07:46:26;;;;;;;3.55;2.80;;;11.20;99.90;;;10.97;70.27;100823.38;5027387;28;20037;-44
2021/04/21 07:48:53;;;;;;;6.40;2.10;;;11.40;99.90;;;11.04;69.77;100834.09;5027463;28;20045;-47
2021/04/21 07:51:21;;;;;;;4.22;2.28;;;11.60;99.90;;;11.21;69.08;100838.59;5027755;28;20045;-53
2021/04/21 07:54:00;;;;;;;3.88;2.33;;;11.70;99.90;;;11.64;67.97;100836.31;5027530;28;20171;-51
2021/04/21 07:56:34;;;;;;;5.75;2.92;;;12.10;99.90;;;12.07;66.82;100834.09;5027620;28;20151;-43
2021/04/21 07:59:24;;;;;;;5.03;2.75;;;12.40;99.90;;;12.13;65.17;100834.34;5027392;28;20041;-48
2021/04/21 08:01:51;;;;;;;3.75;2.20;;;12.60;99.90;;;12.20;66.84;100843.25;5027908;28;20034;-51
2021/04/21 08:04:24;;;;;;;4.03;2.50;;;12.80;99.90;;;12.53;65.62;100843.59;5028344;28;20045;-50
2021/04/21 08:07:00;;;;;;;5.25;2.47;;;13.00;99.90;;;12.73;65.26;100844.28;5028242;28;20091;-44
2021/04/21 08:09:34;;;;;;;7.80;2.30;;;13.20;99.90;;;12.91;65.07;100847.69;5027836;28;20033;-49
2021/04/21 08:12:08;;;;;;;3.30;1.95;;;13.50;99.90;;;13.32;63.55;100850.66;5027925;28;20056;-46
2021/04/21 08:14:51;;;;;;;2.75;1.92;;;13.90;99.90;;;13.37;62.87;100851.03;5028106;28;20034;-48
2021/04/21 08:17:19;;;;;;;4.93;2.65;;;14.10;99.90;;;13.55;63.02;100857.88;5027817;28;20128;-49
2021/04/21 08:19:52;;;;;;;3.25;2.05;;;14.30;99.90;;;13.51;63.24;100861.75;5028079;28;20454;-51
2021/04/21 08:22:29;;;;;;;6.53;2.40;;;14.30;99.90;;;13.72;62.33;100853.53;5027944;28;20449;-44
2021/04/21 08:24:58;;;;;;;5.65;2.70;;;14.40;99.90;;;13.79;63.04;100851.09;5027760;28;20077;-45
2021/04/21 08:27:26;;;;;;;4.60;2.50;;;14.60;99.90;;;13.69;62.72;100855.66;5027033;28;20517;-48
2021/04/21 08:29:52;;;;;;;3.75;2.08;;;14.60;99.30;;;14.01;62.08;100865.47;5028102;28;20125;-44
2021/04/21 08:32:22;;;;;;;3.67;1.85;;;14.70;98.90;;;14.66;59.62;100858.63;5028218;28;20033;-44
2021/04/21 08:34:52;;;;;;;3.08;2.20;;;15.00;98.30;;;15.10;57.84;100861.00;5027037;28;20030;-44
2021/04/21 08:37:20;;;;;;;5.05;1.50;;;15.50;96.90;;;14.92;59.10;100858.50;5028524;28;20052;-46
2021/04/21 08:39:46;;;;;;;6.22;2.10;;;15.70;95.70;;;14.64;59.62;100860.63;5026631;28;20477;-46
2021/04/21 08:42:14;;;;;;;2.67;2.13;;;15.70;94.20;;;15.34;58.33;100855.72;5034134;28;20366;-48
2021/04/21 08:44:42;;;;;;;1.92;1.33;;;15.90;95.00;;;15.17;58.25;100851.44;5047296;28;20426;-48
2021/04/21 08:47:15;;;;;;;3.50;1.88;;;16.10;93.20;;;15.18;55.95;100858.34;5008281;28;20040;-49
2021/04/21 08:49:44;;;;;;;2.38;1.17;;;16.10;92.10;;;15.33;56.56;100856.69;5038115;28;20029;-52
2021/04/21 08:52:16;;;;;;;2.28;1.70;;;16.10;91.70;;;15.13;56.63;100860.63;5047987;28;20065;-45
2021/04/21 08:54:47;;;;;;;2.78;1.70;;;16.10;90.90;;;15.24;56.95;100858.50;5028006;28;20038;-48
2021/04/21 08:57:13;;;;;;;4.65;2.00;;;16.00;91.00;;;15.62;56.18;100866.69;5043741;28;20041;-50
2021/04/21 08:59:39;;;;;;;5.88;2.13;;;16.30;91.00;;;15.26;57.10;100861.78;5034896;28;20033;-48
2021/04/21 09:02:07;;;;;;;3.65;1.67;;;16.30;90.10;;;15.23;56.77;100864.75;5051780;28;20033;-50
2021/04/21 09:04:33;;;;;;;4.03;2.20;;;16.20;89.80;;;15.47;56.16;100855.22;5022857;28;20533;-48
2021/04/21 09:07:02;;;;;;;5.35;2.08;;;16.30;89.20;;;15.84;54.93;100859.91;5030577;28;20111;-47
2021/04/21 09:09:29;;;;;;;4.20;2.20;;;16.50;88.60;;;16.39;53.68;100857.19;5031322;28;20033;-48
2021/04/21 09:11:55;;;;;;;6.57;2.08;;;16.90;87.10;;;16.47;53.52;100864.22;5031211;28;20072;-46
2021/04/21 09:14:21;;;;;;;3.95;2.22;;;17.10;85.70;;;16.88;52.30;100855.09;5029011;28;20045;-46
2021/04/21 09:16:47;;;;;;;10.75;1.85;;;17.30;83.70;;;17.11;50.69;100849.81;5044307;28;20143;-49
2021/04/21 09:19:15;;;;;;;6.80;2.70;;;17.50;79.50;;;17.34;48.69;100852.41;5050105;28;20105;-46
2021/04/21 09:21:42;;;;;;;9.35;2.83;;;18.00;76.00;;;16.98;49.49;100849.59;5030383;28;20401;-51
2021/04/21 09:24:27;;;;;;;5.47;2.53;;;17.70;74.30;;;17.14;48.46;100849.44;5030171;28;20437;-47
2021/04/21 09:26:54;;;;;;;6.05;2.70;;;17.80;73.70;;;17.59;48.44;100856.41;5030535;28;20042;-47
2021/04/21 09:29:46;;;;;;;4.53;2.55;;;18.10;72.80;;;17.92;47.23;100863.19;5012124;28;20511;-48
2021/04/21 09:32:12;;;;;;;9.95;2.50;;;18.40;72.50;;;18.46;46.96;100861.00;5033774;28;20037;-46
2021/04/21 09:34:54;;;;;;;5.28;2.45;;;18.90;71.60;;;18.67;44.94;100855.78;5049573;28;20102;-47
2021/04/21 09:37:26;;;;;;;4.65;2.33;;;19.10;69.70;;;18.34;43.72;100859.84;5049872;28;20384;-50
2021/04/21 09:39:52;;;;;;;5.10;2.58;;;19.20;67.40;;;18.43;45.80;100856.91;5050277;28;20033;-47
2021/04/21 09:42:27;;;;;;;5.03;2.75;;;18.90;68.40;;;18.79;43.81;100856.91;5049411;28;20084;-47
2021/04/21 09:44:53;;;;;;;9.27;4.68;;;19.20;66.60;;;18.53;44.53;100854.78;5031849;28;20060;-48
2021/04/21 09:47:20;;;;;;;9.75;5.07;;;19.20;64.80;;;18.13;44.23;100853.53;5049961;28;20447;-48
2021/04/21 09:49:47;;;;;;;6.90;4.10;;;18.90;63.60;;;18.19;44.16;100854.59;5049590;28;20104;-47
2021/04/21 09:52:13;;;;;;;5.82;3.25;;;18.90;63.90;;;18.19;44.24;100850.16;5037279;28;20064;-47
2021/04/21 09:54:44;;;;;;;10.15;4.55;;;19.00;63.50;;;18.23;43.28;100851.41;5034825;28;20127;-46
2021/04/21 09:57:19;;;;;;;7.45;4.10;;;19.00;61.70;;;18.60;42.56;100848.75;5029673;28;20182;-51
2021/04/21 10:00:01;;;;;;;3.83;2.45;;;19.30;62.40;;;18.29;42.92;100849.88;5049659;28;20048;-45
2021/04/21 10:02:38;;;;;;;10.80;2.35;;;19.30;62.10;;;17.98;45.91;100855.34;5036523;28;20124;-47
2021/04/21 10:05:37;;;;;;;11.65;2.28;;;18.80;65.20;;;18.44;45.20;100855.06;5042944;28;20072;-47
2021/04/21 10:08:25;;;;;;;3.42;2.50;;;19.00;65.60;;;18.41;43.03;100855.47;5044419;28;20030;-44
2021/04/21 10:11:05;;;;;;;5.43;2.28;;;19.10;62.90;;;18.69;44.60;100847.66;5029308;28;20041;-47
2021/04/21 10:13:46;;;;;;;3.78;2.28;;;19.30;64.50;;;18.58;42.38;100848.94;5029295;28;20034;-48
2021/04/21 10:16:14;;;;;;;4.90;2.05;;;19.50;60.90;;;18.31;45.26;100852.31;5029353;28;20116;-49
2021/04/21 10:18:42;;;;;;;4.05;1.92;;;19.10;64.30;;;19.01;44.12;100843.69;5029459;28;20079;-50
2021/04/21 10:21:10;;;;;;;3.63;1.85;;;19.50;64.00;;;19.90;42.77;100844.72;5029677;28;20040;-49
2021/04/21 10:23:36;;;;;;;2.88;1.90;;;20.10;63.50;;;20.34;42.33;100840.81;5029062;28;20025;-53
2021/04/21 10:26:07;;;;;;;2.80;2.03;;;20.60;62.80;;;20.26;42.04;100839.19;5029141;28;20305;-50
2021/04/21 10:28:37;;;;;;;3.00;2.22;;;20.70;62.20;;;19.74;43.38;100837.13;5026851;28;20140;-44
2021/04/21 10:31:15;;;;;;;2.92;2.40;;;20.40;62.10;;;19.71;42.34;100838.31;5029700;28;20069;-45
2021/04/21 10:33:42;;;;;;;3.58;2.30;;;20.40;62.20;;;19.95;43.59;100842.28;5029628;28;20048;-44
2021/04/21 10:36:10;;;;;;;3.80;3.00;;;20.50;63.30;;;19.29;44.56;100836.63;5028999;28;20166;-47
2021/04/21 10:38:42;;;;;;;3.67;2.65;;;20.10;62.30;;;19.15;44.67;100834.88;5029209;28;20129;-47
2021/04/21 10:41:27;;;;;;;4.43;2.67;;;19.80;63.50;;;19.03;44.46;100820.56;5028937;28;20041;-47
2021/04/21 10:44:23;;;;;;;4.53;2.63;;;19.80;64.00;;;19.41;44.05;100837.69;5048735;28;20048;-44
2021/04/21 10:47:02;;;;;;;5.50;3.00;;;19.90;64.20;;;19.32;43.91;100827.50;5049162;28;20039;-49
2021/04/21 10:50:08;;;;;;;3.97;2.33;;;20.10;63.60;;;19.03;44.34;100820.56;5047251;28;20164;-50
2021/04/21 10:52:40;;;;;;;3.35;2.30;;;19.90;62.60;;;17.92;47.12;100824.47;5048394;28;20055;-47
2021/04/21 10:55:10;;;;;;;2.58;1.98;;;19.20;64.90;;;17.76;47.87;100828.13;5048711;28;20441;-44
2021/04/21 10:57:42;;;;;;;5.90;3.30;;;18.70;65.70;;;17.40;49.07;100821.91;5048571;28;20127;-46
2021/04/21 11:00:15;;;;;;;2.47;1.85;;;18.30;67.40;;;17.31;50.02;100826.44;5030648;28;20037;-46